sensor_id;sensor_type;location;lat;lon;timestamp;temperature;humidity
14053;DHT22;7101;51.600;7.310;2024-02-14T00:01:12;8.40;1.00
14053;DHT22;7101;51.600;7.310;2024-02-14T00:03:39;8.40;1.00
14053;DHT22;7101;51.600;7.310;2024-02-14T00:06:06;8.40;99.90
14053;DHT22;7101;51.600;7.310;2024-02-14T00:08:33;8.30;1.00
14053;DHT22;7101;51.600;7.310;2024-02-14T00:11:00;8.40;99.90
14053;DHT22;7101;51.600;7.310;2024-02-14T00:13:27;8.40;1.00
14053;DHT22;7101;51.600;7.310;2024-02-14T00:15:55;8.40;99.90
14053;DHT22;7101;51.600;7.310;2024-02-14T00:18:23;8.40;1.00
14053;DHT22;7101;51.600;7.310;2024-02-14T00:20:50;8.40;1.00
14053;DHT22;7101;51.600;7.310;2024-02-14T00:23:16;8.30;99.90
14053;DHT22;7101;51.600;7.310;2024-02-14T00:25:44;8.30;1.00
14053;DHT22;7101;51.600;7.310;2024-02-14T00:28:11;8.30;99.90
14053;DHT22;7101;51.600;7.310;2024-02-14T00:30:37;8.30;1.00
14053;DHT22;7101;51.600;7.310;2024-02-14T00:33:06;8.20;1.00
14053;DHT22;7101;51.600;7.310;2024-02-14T00:35:32;8.20;99.90
14053;DHT22;7101;51.600;7.310;2024-02-14T00:38:00;8.20;99.90
14053;DHT22;7101;51.600;7.310;2024-02-14T00:40:27;8.10;99.90
14053;DHT22;7101;51.600;7.310;2024-02-14T00:42:54;8.10;99.90
14053;DHT22;7101;51.600;7.310;2024-02-14T00:45:20;8.10;99.90
14053;DHT22;7101;51.600;7.310;2024-02-14T00:47:47;8.20;1.00
14053;DHT22;7101;51.600;7.310;2024-02-14T00:50:16;8.20;91.90
14053;DHT22;7101;51.600;7.310;2024-02-14T00:52:42;8.20;99.90
14053;DHT22;7101;51.600;7.310;2024-02-14T00:55:09;8.20;1.00
14053;DHT22;7101;51.600;7.310;2024-02-14T00:57:37;8.20;1.00
14053;DHT22;7101;51.600;7.310;2024-02-14T01:00:05;8.20;99.90
14053;DHT22;7101;51.600;7.310;2024-02-14T01:02:32;8.20;1.00
14053;DHT22;7101;51.600;7.310;2024-02-14T01:04:59;8.10;99.90
14053;DHT22;7101;51.600;7.310;2024-02-14T01:07:27;8.10;99.90
14053;DHT22;7101;51.600;7.310;2024-02-14T01:09:53;8.10;1.00
14053;DHT22;7101;51.600;7.310;2024-02-14T01:12:20;8.10;1.00
14053;DHT22;7101;51.600;7.310;2024-02-14T01:14:47;8.10;1.00
14053;DHT22;7101;51.600;7.310;2024-02-14T01:17:15;8.10;1.00
14053;DHT22;7101;51.600;7.310;2024-02-14T01:19:41;8.10;1.00
14053;DHT22;7101;51.600;7.310;2024-02-14T01:22:09;8.00;1.00
14053;DHT22;7101;51.600;7.310;2024-02-14T01:24:37;8.00;1.00
14053;DHT22;7101;51.600;7.310;2024-02-14T01:27:04;8.00;1.00
14053;DHT22;7101;51.600;7.310;2024-02-14T01:29:34;8.00;1.00
14053;DHT22;7101;51.600;7.310;2024-02-14T01:32:00;8.00;1.00
14053;DHT22;7101;51.600;7.310;2024-02-14T01:34:29;8.10;1.00
14053;DHT22;7101;51.600;7.310;2024-02-14T01:36:56;8.00;1.00
14053;DHT22;7101;51.600;7.310;2024-02-14T01:39:23;8.00;1.00
14053;DHT22;7101;51.600;7.310;2024-02-14T01:41:51;8.10;1.00
14053;DHT22;7101;51.600;7.310;2024-02-14T01:44:18;8.10;1.00
14053;DHT22;7101;51.600;7.310;2024-02-14T01:46:46;8.10;1.00
14053;DHT22;7101;51.600;7.310;2024-02-14T01:49:13;8.00;99.90
14053;DHT22;7101;51.600;7.310;2024-02-14T01:51:43;8.10;99.90
14053;DHT22;7101;51.600;7.310;2024-02-14T01:54:12;8.10;92.90
14053;DHT22;7101;51.600;7.310;2024-02-14T01:56:39;8.00;99.90
14053;DHT22;7101;51.600;7.310;2024-02-14T01:59:09;8.10;99.90
14053;DHT22;7101;51.600;7.310;2024-02-14T02:01:36;8.10;20.80
14053;DHT22;7101;51.600;7.310;2024-02-14T02:04:04;8.10;99.90
14053;DHT22;7101;51.600;7.310;2024-02-14T02:06:31;8.10;1.00
14053;DHT22;7101;51.600;7.310;2024-02-14T02:08:58;8.10;1.00
14053;DHT22;7101;51.600;7.310;2024-02-14T02:11:25;8.10;1.00
14053;DHT22;7101;51.600;7.310;2024-02-14T02:13:52;8.20;1.00
14053;DHT22;7101;51.600;7.310;2024-02-14T02:16:20;8.10;1.00
14053;DHT22;7101;51.600;7.310;2024-02-14T02:18:47;8.10;99.90
14053;DHT22;7101;51.600;7.310;2024-02-14T02:21:16;8.10;99.90
14053;DHT22;7101;51.600;7.310;2024-02-14T02:23:47;8.20;99.90
14053;DHT22;7101;51.600;7.310;2024-02-14T02:26:14;8.20;99.90
14053;DHT22;7101;51.600;7.310;2024-02-14T02:28:41;8.20;99.90
14053;DHT22;7101;51.600;7.310;2024-02-14T02:31:08;8.20;99.90
14053;DHT22;7101;51.600;7.310;2024-02-14T02:33:35;8.20;99.90
14053;DHT22;7101;51.600;7.310;2024-02-14T02:36:03;8.20;99.90
14053;DHT22;7101;51.600;7.310;2024-02-14T02:38:30;8.30;99.90
14053;DHT22;7101;51.600;7.310;2024-02-14T02:40:58;8.30;99.90
14053;DHT22;7101;51.600;7.310;2024-02-14T02:43:26;8.30;99.90
14053;DHT22;7101;51.600;7.310;2024-02-14T02:45:53;8.30;99.90
14053;DHT22;7101;51.600;7.310;2024-02-14T02:48:20;8.30;1.00
14053;DHT22;7101;51.600;7.310;2024-02-14T02:50:48;8.40;99.90
14053;DHT22;7101;51.600;7.310;2024-02-14T02:53:16;8.40;1.00
14053;DHT22;7101;51.600;7.310;2024-02-14T02:55:43;8.40;1.00
14053;DHT22;7101;51.600;7.310;2024-02-14T02:58:11;8.40;1.00
14053;DHT22;7101;51.600;7.310;2024-02-14T03:00:39;8.40;1.00
14053;DHT22;7101;51.600;7.310;2024-02-14T03:03:07;8.40;99.90
14053;DHT22;7101;51.600;7.310;2024-02-14T03:05:34;8.40;1.00
14053;DHT22;7101;51.600;7.310;2024-02-14T03:08:01;8.40;1.00
14053;DHT22;7101;51.600;7.310;2024-02-14T03:10:28;8.50;1.00
14053;DHT22;7101;51.600;7.310;2024-02-14T03:12:55;8.50;1.00
14053;DHT22;7101;51.600;7.310;2024-02-14T03:15:23;8.60;20.10
14053;DHT22;7101;51.600;7.310;2024-02-14T03:17:51;8.60;1.00
14053;DHT22;7101;51.600;7.310;2024-02-14T03:20:18;8.60;99.90
14053;DHT22;7101;51.600;7.310;2024-02-14T03:22:45;8.60;1.00
14053;DHT22;7101;51.600;7.310;2024-02-14T03:25:13;8.70;1.00
14053;DHT22;7101;51.600;7.310;2024-02-14T03:27:40;8.70;1.00
14053;DHT22;7101;51.600;7.310;2024-02-14T03:30:08;8.70;99.90
14053;DHT22;7101;51.600;7.310;2024-02-14T03:32:36;8.70;1.00
14053;DHT22;7101;51.600;7.310;2024-02-14T03:35:03;8.70;1.00
14053;DHT22;7101;51.600;7.310;2024-02-14T03:37:31;8.70;1.00
14053;DHT22;7101;51.600;7.310;2024-02-14T03:39:58;8.70;1.00
14053;DHT22;7101;51.600;7.310;2024-02-14T03:42:25;8.60;99.90
14053;DHT22;7101;51.600;7.310;2024-02-14T03:44:52;8.60;99.90
14053;DHT22;7101;51.600;7.310;2024-02-14T03:47:25;8.60;40.20
14053;DHT22;7101;51.600;7.310;2024-02-14T03:49:54;8.60;99.90
14053;DHT22;7101;51.600;7.310;2024-02-14T03:52:21;8.60;99.90
14053;DHT22;7101;51.600;7.310;2024-02-14T03:54:48;8.60;1.00
14053;DHT22;7101;51.600;7.310;2024-02-14T03:57:15;8.50;1.00
14053;DHT22;7101;51.600;7.310;2024-02-14T03:59:43;8.40;1.00
14053;DHT22;7101;51.600;7.310;2024-02-14T04:02:10;8.50;37.80
14053;DHT22;7101;51.600;7.310;2024-02-14T04:04:37;8.40;99.90
14053;DHT22;7101;51.600;7.310;2024-02-14T04:07:06;8.40;99.90
14053;DHT22;7101;51.600;7.310;2024-02-14T04:09:35;8.30;99.90
14053;DHT22;7101;51.600;7.310;2024-02-14T04:12:01;8.30;99.90
14053;DHT22;7101;51.600;7.310;2024-02-14T04:14:29;8.40;99.90
14053;DHT22;7101;51.600;7.310;2024-02-14T04:16:56;8.30;99.90
14053;DHT22;7101;51.600;7.310;2024-02-14T04:19:22;8.30;99.90
14053;DHT22;7101;51.600;7.310;2024-02-14T04:21:49;8.40;99.90
14053;DHT22;7101;51.600;7.310;2024-02-14T04:24:17;8.40;99.90
14053;DHT22;7101;51.600;7.310;2024-02-14T04:26:44;8.40;99.90
14053;DHT22;7101;51.600;7.310;2024-02-14T04:29:11;8.50;99.90
14053;DHT22;7101;51.600;7.310;2024-02-14T04:31:38;8.50;99.90
14053;DHT22;7101;51.600;7.310;2024-02-14T04:34:05;8.50;99.90
14053;DHT22;7101;51.600;7.310;2024-02-14T04:36:33;8.60;99.90
14053;DHT22;7101;51.600;7.310;2024-02-14T04:39:01;8.60;99.90
14053;DHT22;7101;51.600;7.310;2024-02-14T04:41:30;8.70;99.90
14053;DHT22;7101;51.600;7.310;2024-02-14T04:43:56;8.60;99.90
14053;DHT22;7101;51.600;7.310;2024-02-14T04:46:23;8.60;99.90
14053;DHT22;7101;51.600;7.310;2024-02-14T04:48:50;8.70;99.90
14053;DHT22;7101;51.600;7.310;2024-02-14T04:51:17;8.60;99.90
14053;DHT22;7101;51.600;7.310;2024-02-14T04:53:44;8.70;99.90
14053;DHT22;7101;51.600;7.310;2024-02-14T04:56:11;8.70;99.90
14053;DHT22;7101;51.600;7.310;2024-02-14T04:58:39;8.70;99.90
14053;DHT22;7101;51.600;7.310;2024-02-14T05:01:06;8.70;99.90
14053;DHT22;7101;51.600;7.310;2024-02-14T05:03:33;8.70;99.90
14053;DHT22;7101;51.600;7.310;2024-02-14T05:05:59;8.80;99.90
14053;DHT22;7101;51.600;7.310;2024-02-14T05:08:28;8.80;99.90
14053;DHT22;7101;51.600;7.310;2024-02-14T05:10:55;8.80;99.90
14053;DHT22;7101;51.600;7.310;2024-02-14T05:13:21;8.80;99.90
14053;DHT22;7101;51.600;7.310;2024-02-14T05:15:50;8.90;99.90
14053;DHT22;7101;51.600;7.310;2024-02-14T05:18:17;8.90;99.90
14053;DHT22;7101;51.600;7.310;2024-02-14T05:20:44;8.90;99.90
14053;DHT22;7101;51.600;7.310;2024-02-14T05:23:11;8.90;99.90
14053;DHT22;7101;51.600;7.310;2024-02-14T05:25:38;8.90;99.90
14053;DHT22;7101;51.600;7.310;2024-02-14T05:28:05;8.90;99.90
14053;DHT22;7101;51.600;7.310;2024-02-14T05:30:32;9.00;99.90
14053;DHT22;7101;51.600;7.310;2024-02-14T05:33:03;9.00;99.90
14053;DHT22;7101;51.600;7.310;2024-02-14T05:35:30;9.10;99.90
14053;DHT22;7101;51.600;7.310;2024-02-14T05:37:56;9.00;99.90
14053;DHT22;7101;51.600;7.310;2024-02-14T05:40:23;9.10;99.90
14053;DHT22;7101;51.600;7.310;2024-02-14T05:42:51;9.10;99.90
14053;DHT22;7101;51.600;7.310;2024-02-14T05:45:18;9.10;99.90
14053;DHT22;7101;51.600;7.310;2024-02-14T05:47:44;9.10;99.90
14053;DHT22;7101;51.600;7.310;2024-02-14T05:50:12;9.20;99.90
14053;DHT22;7101;51.600;7.310;2024-02-14T05:52:39;9.10;99.90
14053;DHT22;7101;51.600;7.310;2024-02-14T05:55:06;9.10;99.90
14053;DHT22;7101;51.600;7.310;2024-02-14T05:57:34;9.10;99.90
14053;DHT22;7101;51.600;7.310;2024-02-14T06:00:02;9.10;99.90
14053;DHT22;7101;51.600;7.310;2024-02-14T06:02:29;9.00;99.90
14053;DHT22;7101;51.600;7.310;2024-02-14T06:04:56;9.00;99.90
14053;DHT22;7101;51.600;7.310;2024-02-14T06:07:24;9.10;99.90
14053;DHT22;7101;51.600;7.310;2024-02-14T06:09:51;9.10;99.90
14053;DHT22;7101;51.600;7.310;2024-02-14T06:12:18;9.10;99.90
14053;DHT22;7101;51.600;7.310;2024-02-14T06:14:48;9.10;99.90
14053;DHT22;7101;51.600;7.310;2024-02-14T06:17:15;9.10;99.90
14053;DHT22;7101;51.600;7.310;2024-02-14T06:19:43;9.10;99.90
14053;DHT22;7101;51.600;7.310;2024-02-14T06:22:11;9.10;99.90
14053;DHT22;7101;51.600;7.310;2024-02-14T06:24:39;9.10;99.90
14053;DHT22;7101;51.600;7.310;2024-02-14T06:27:06;9.10;99.90
14053;DHT22;7101;51.600;7.310;2024-02-14T06:29:33;9.00;99.90
14053;DHT22;7101;51.600;7.310;2024-02-14T06:32:00;9.00;99.90
14053;DHT22;7101;51.600;7.310;2024-02-14T06:34:28;9.00;99.90
14053;DHT22;7101;51.600;7.310;2024-02-14T06:36:54;9.00;99.90
14053;DHT22;7101;51.600;7.310;2024-02-14T06:39:21;9.00;99.90
14053;DHT22;7101;51.600;7.310;2024-02-14T06:41:49;9.00;99.90
14053;DHT22;7101;51.600;7.310;2024-02-14T06:44:16;9.00;99.90
14053;DHT22;7101;51.600;7.310;2024-02-14T06:46:43;9.10;99.90
14053;DHT22;7101;51.600;7.310;2024-02-14T06:49:10;9.10;99.90
14053;DHT22;7101;51.600;7.310;2024-02-14T06:51:39;9.10;99.90
14053;DHT22;7101;51.600;7.310;2024-02-14T06:54:06;9.10;99.90
14053;DHT22;7101;51.600;7.310;2024-02-14T06:56:33;9.20;99.90
14053;DHT22;7101;51.600;7.310;2024-02-14T06:59:01;9.20;99.90
14053;DHT22;7101;51.600;7.310;2024-02-14T07:01:29;9.20;99.90
14053;DHT22;7101;51.600;7.310;2024-02-14T07:03:56;9.20;99.90
14053;DHT22;7101;51.600;7.310;2024-02-14T07:06:21;9.20;99.90
14053;DHT22;7101;51.600;7.310;2024-02-14T07:08:48;9.20;99.90
14053;DHT22;7101;51.600;7.310;2024-02-14T07:11:16;9.20;99.90
14053;DHT22;7101;51.600;7.310;2024-02-14T07:13:43;9.20;99.90
14053;DHT22;7101;51.600;7.310;2024-02-14T07:16:11;9.20;99.90
14053;DHT22;7101;51.600;7.310;2024-02-14T07:18:38;9.20;99.90
14053;DHT22;7101;51.600;7.310;2024-02-14T07:21:05;9.30;99.90
14053;DHT22;7101;51.600;7.310;2024-02-14T07:23:32;9.30;99.90
14053;DHT22;7101;51.600;7.310;2024-02-14T07:25:59;9.30;99.90
14053;DHT22;7101;51.600;7.310;2024-02-14T07:28:27;9.30;99.90
14053;DHT22;7101;51.600;7.310;2024-02-14T07:30:53;9.30;99.90
14053;DHT22;7101;51.600;7.310;2024-02-14T07:33:21;9.30;99.90
14053;DHT22;7101;51.600;7.310;2024-02-14T07:35:49;9.30;99.90
14053;DHT22;7101;51.600;7.310;2024-02-14T07:38:16;9.30;99.90
14053;DHT22;7101;51.600;7.310;2024-02-14T07:40:43;9.30;99.90
14053;DHT22;7101;51.600;7.310;2024-02-14T07:43:10;9.30;99.90
14053;DHT22;7101;51.600;7.310;2024-02-14T07:45:37;9.30;99.90
14053;DHT22;7101;51.600;7.310;2024-02-14T07:48:05;9.30;99.90
14053;DHT22;7101;51.600;7.310;2024-02-14T07:50:33;9.40;99.90
14053;DHT22;7101;51.600;7.310;2024-02-14T07:53:01;9.40;99.90
14053;DHT22;7101;51.600;7.310;2024-02-14T07:55:28;9.40;99.90
14053;DHT22;7101;51.600;7.310;2024-02-14T07:57:55;9.40;99.90
14053;DHT22;7101;51.600;7.310;2024-02-14T08:00:22;9.40;99.90
14053;DHT22;7101;51.600;7.310;2024-02-14T08:02:49;9.50;99.90
14053;DHT22;7101;51.600;7.310;2024-02-14T08:05:15;9.50;99.90
14053;DHT22;7101;51.600;7.310;2024-02-14T08:07:44;9.50;99.90
14053;DHT22;7101;51.600;7.310;2024-02-14T08:10:11;9.50;99.90
14053;DHT22;7101;51.600;7.310;2024-02-14T08:12:38;9.50;99.90
14053;DHT22;7101;51.600;7.310;2024-02-14T08:15:05;9.50;99.90
14053;DHT22;7101;51.600;7.310;2024-02-14T08:17:33;9.60;99.90
14053;DHT22;7101;51.600;7.310;2024-02-14T08:20:01;9.60;99.90
14053;DHT22;7101;51.600;7.310;2024-02-14T08:22:29;9.60;99.90
14053;DHT22;7101;51.600;7.310;2024-02-14T08:24:58;9.60;99.90
14053;DHT22;7101;51.600;7.310;2024-02-14T08:27:25;9.70;99.90
14053;DHT22;7101;51.600;7.310;2024-02-14T08:29:53;9.70;99.90
14053;DHT22;7101;51.600;7.310;2024-02-14T08:32:20;9.70;99.90
14053;DHT22;7101;51.600;7.310;2024-02-14T08:34:47;9.70;99.90
14053;DHT22;7101;51.600;7.310;2024-02-14T08:37:15;9.80;99.90
14053;DHT22;7101;51.600;7.310;2024-02-14T08:39:42;9.80;99.90
14053;DHT22;7101;51.600;7.310;2024-02-14T08:42:11;9.80;99.90
14053;DHT22;7101;51.600;7.310;2024-02-14T08:44:39;9.80;99.90
14053;DHT22;7101;51.600;7.310;2024-02-14T08:47:06;9.80;99.90
14053;DHT22;7101;51.600;7.310;2024-02-14T08:49:34;9.90;99.90
14053;DHT22;7101;51.600;7.310;2024-02-14T08:52:01;9.90;99.90
14053;DHT22;7101;51.600;7.310;2024-02-14T08:54:28;9.90;99.90
14053;DHT22;7101;51.600;7.310;2024-02-14T08:56:55;9.90;99.90
14053;DHT22;7101;51.600;7.310;2024-02-14T08:59:25;9.90;99.90
14053;DHT22;7101;51.600;7.310;2024-02-14T09:01:53;9.90;99.90
14053;DHT22;7101;51.600;7.310;2024-02-14T09:04:21;10.00;99.90
14053;DHT22;7101;51.600;7.310;2024-02-14T09:06:48;10.00;99.90
14053;DHT22;7101;51.600;7.310;2024-02-14T09:09:15;10.00;99.90
14053;DHT22;7101;51.600;7.310;2024-02-14T09:11:43;10.10;99.90
14053;DHT22;7101;51.600;7.310;2024-02-14T09:14:11;10.10;99.90
14053;DHT22;7101;51.600;7.310;2024-02-14T09:16:39;10.10;99.90
14053;DHT22;7101;51.600;7.310;2024-02-14T09:19:06;10.10;99.90
14053;DHT22;7101;51.600;7.310;2024-02-14T09:21:34;10.10;99.90
14053;DHT22;7101;51.600;7.310;2024-02-14T09:24:02;10.10;99.90
14053;DHT22;7101;51.600;7.310;2024-02-14T09:26:29;10.20;99.90
14053;DHT22;7101;51.600;7.310;2024-02-14T09:28:57;10.10;99.90
14053;DHT22;7101;51.600;7.310;2024-02-14T09:31:24;10.10;99.90
14053;DHT22;7101;51.600;7.310;2024-02-14T09:33:52;10.10;99.90
14053;DHT22;7101;51.600;7.310;2024-02-14T09:36:23;10.20;99.90
14053;DHT22;7101;51.600;7.310;2024-02-14T09:38:51;10.20;99.90
14053;DHT22;7101;51.600;7.310;2024-02-14T09:41:22;10.30;99.90
14053;DHT22;7101;51.600;7.310;2024-02-14T09:43:52;10.40;99.90
14053;DHT22;7101;51.600;7.310;2024-02-14T09:46:18;10.30;99.90
14053;DHT22;7101;51.600;7.310;2024-02-14T09:48:46;10.40;99.90
14053;DHT22;7101;51.600;7.310;2024-02-14T09:51:16;10.40;99.90
14053;DHT22;7101;51.600;7.310;2024-02-14T09:53:42;10.40;99.90
14053;DHT22;7101;51.600;7.310;2024-02-14T09:56:11;10.40;99.90
14053;DHT22;7101;51.600;7.310;2024-02-14T09:58:37;10.40;99.90
14053;DHT22;7101;51.600;7.310;2024-02-14T10:01:04;10.40;99.90
14053;DHT22;7101;51.600;7.310;2024-02-14T10:03:32;10.30;99.90
14053;DHT22;7101;51.600;7.310;2024-02-14T10:05:59;10.30;99.90
14053;DHT22;7101;51.600;7.310;2024-02-14T10:08:27;10.30;99.90
14053;DHT22;7101;51.600;7.310;2024-02-14T10:10:56;10.30;99.90
14053;DHT22;7101;51.600;7.310;2024-02-14T10:13:26;10.30;99.90
14053;DHT22;7101;51.600;7.310;2024-02-14T10:15:53;10.30;99.90
14053;DHT22;7101;51.600;7.310;2024-02-14T10:18:21;10.30;99.90
14053;DHT22;7101;51.600;7.310;2024-02-14T10:20:55;10.30;99.90
14053;DHT22;7101;51.600;7.310;2024-02-14T10:23:22;10.30;99.90
14053;DHT22;7101;51.600;7.310;2024-02-14T10:25:52;10.20;99.90
14053;DHT22;7101;51.600;7.310;2024-02-14T10:28:21;10.20;99.90
14053;DHT22;7101;51.600;7.310;2024-02-14T10:30:48;10.30;99.90
14053;DHT22;7101;51.600;7.310;2024-02-14T10:33:16;10.30;99.90
14053;DHT22;7101;51.600;7.310;2024-02-14T10:35:43;10.30;99.90
14053;DHT22;7101;51.600;7.310;2024-02-14T10:38:11;10.30;99.90
14053;DHT22;7101;51.600;7.310;2024-02-14T10:40:38;10.20;99.90
14053;DHT22;7101;51.600;7.310;2024-02-14T10:43:07;10.30;99.90
14053;DHT22;7101;51.600;7.310;2024-02-14T10:45:35;10.30;99.90
14053;DHT22;7101;51.600;7.310;2024-02-14T10:48:04;10.40;99.90
14053;DHT22;7101;51.600;7.310;2024-02-14T10:50:33;10.50;99.90
14053;DHT22;7101;51.600;7.310;2024-02-14T10:53:01;10.60;99.90
14053;DHT22;7101;51.600;7.310;2024-02-14T10:55:31;10.60;99.90
14053;DHT22;7101;51.600;7.310;2024-02-14T10:57:59;10.60;99.90
14053;DHT22;7101;51.600;7.310;2024-02-14T11:00:28;10.60;99.90
14053;DHT22;7101;51.600;7.310;2024-02-14T11:02:58;10.60;99.90
14053;DHT22;7101;51.600;7.310;2024-02-14T11:05:26;10.60;99.90
14053;DHT22;7101;51.600;7.310;2024-02-14T11:07:53;10.70;99.90
14053;DHT22;7101;51.600;7.310;2024-02-14T11:10:22;10.80;99.90
14053;DHT22;7101;51.600;7.310;2024-02-14T11:12:49;10.80;99.90
14053;DHT22;7101;51.600;7.310;2024-02-14T11:15:18;10.80;99.90
14053;DHT22;7101;51.600;7.310;2024-02-14T11:17:48;10.80;99.90
14053;DHT22;7101;51.600;7.310;2024-02-14T11:20:18;10.80;99.90
14053;DHT22;7101;51.600;7.310;2024-02-14T11:22:55;10.80;99.90
14053;DHT22;7101;51.600;7.310;2024-02-14T11:25:28;10.80;99.90
14053;DHT22;7101;51.600;7.310;2024-02-14T11:27:55;10.80;99.90
14053;DHT22;7101;51.600;7.310;2024-02-14T11:30:33;10.90;99.90
14053;DHT22;7101;51.600;7.310;2024-02-14T11:33:18;11.00;99.90
14053;DHT22;7101;51.600;7.310;2024-02-14T11:35:46;10.90;99.90
14053;DHT22;7101;51.600;7.310;2024-02-14T11:38:15;10.90;99.90
14053;DHT22;7101;51.600;7.310;2024-02-14T11:40:42;10.80;99.90
14053;DHT22;7101;51.600;7.310;2024-02-14T11:43:13;10.90;99.90
14053;DHT22;7101;51.600;7.310;2024-02-14T11:45:41;10.90;99.90
14053;DHT22;7101;51.600;7.310;2024-02-14T11:48:10;10.90;99.90
14053;DHT22;7101;51.600;7.310;2024-02-14T11:50:40;10.90;99.90
14053;DHT22;7101;51.600;7.310;2024-02-14T11:53:09;10.90;99.90
14053;DHT22;7101;51.600;7.310;2024-02-14T11:55:36;10.90;99.90
14053;DHT22;7101;51.600;7.310;2024-02-14T11:58:06;10.90;99.90
14053;DHT22;7101;51.600;7.310;2024-02-14T12:00:34;10.90;99.90
14053;DHT22;7101;51.600;7.310;2024-02-14T12:03:01;11.00;99.90
14053;DHT22;7101;51.600;7.310;2024-02-14T12:05:29;11.20;99.90
14053;DHT22;7101;51.600;7.310;2024-02-14T12:07:58;11.20;99.90
14053;DHT22;7101;51.600;7.310;2024-02-14T12:10:24;11.30;99.90
14053;DHT22;7101;51.600;7.310;2024-02-14T12:12:52;11.30;99.90
14053;DHT22;7101;51.600;7.310;2024-02-14T12:15:18;11.30;99.90
14053;DHT22;7101;51.600;7.310;2024-02-14T12:17:47;11.30;99.90
14053;DHT22;7101;51.600;7.310;2024-02-14T12:20:15;11.40;99.90
14053;DHT22;7101;51.600;7.310;2024-02-14T12:22:41;11.50;99.90
14053;DHT22;7101;51.600;7.310;2024-02-14T12:25:10;11.50;99.90
14053;DHT22;7101;51.600;7.310;2024-02-14T12:27:37;11.50;99.90
14053;DHT22;7101;51.600;7.310;2024-02-14T12:30:05;11.60;99.90
14053;DHT22;7101;51.600;7.310;2024-02-14T12:32:33;11.60;99.90
14053;DHT22;7101;51.600;7.310;2024-02-14T12:35:00;11.50;99.90
14053;DHT22;7101;51.600;7.310;2024-02-14T12:37:27;11.60;99.90
14053;DHT22;7101;51.600;7.310;2024-02-14T12:39:53;11.60;99.90
14053;DHT22;7101;51.600;7.310;2024-02-14T12:42:22;11.60;99.90
14053;DHT22;7101;51.600;7.310;2024-02-14T12:44:51;11.60;99.90
14053;DHT22;7101;51.600;7.310;2024-02-14T12:47:19;11.50;99.90
14053;DHT22;7101;51.600;7.310;2024-02-14T12:49:47;11.50;99.90
14053;DHT22;7101;51.600;7.310;2024-02-14T12:52:15;11.50;99.90
14053;DHT22;7101;51.600;7.310;2024-02-14T12:54:42;11.50;99.90
14053;DHT22;7101;51.600;7.310;2024-02-14T12:57:09;11.50;99.90
14053;DHT22;7101;51.600;7.310;2024-02-14T12:59:38;11.50;99.90
14053;DHT22;7101;51.600;7.310;2024-02-14T13:02:05;11.40;99.90
14053;DHT22;7101;51.600;7.310;2024-02-14T13:04:33;11.50;99.90
14053;DHT22;7101;51.600;7.310;2024-02-14T13:07:00;11.40;99.90
14053;DHT22;7101;51.600;7.310;2024-02-14T13:09:27;11.40;99.90
14053;DHT22;7101;51.600;7.310;2024-02-14T13:11:54;11.30;99.90
14053;DHT22;7101;51.600;7.310;2024-02-14T13:14:22;11.30;99.90
14053;DHT22;7101;51.600;7.310;2024-02-14T13:16:50;11.40;99.90
14053;DHT22;7101;51.600;7.310;2024-02-14T13:19:17;11.50;99.90
14053;DHT22;7101;51.600;7.310;2024-02-14T13:21:44;11.60;99.90
14053;DHT22;7101;51.600;7.310;2024-02-14T13:24:12;11.70;99.90
14053;DHT22;7101;51.600;7.310;2024-02-14T13:26:39;11.60;99.90
14053;DHT22;7101;51.600;7.310;2024-02-14T13:29:06;11.60;99.90
14053;DHT22;7101;51.600;7.310;2024-02-14T13:31:33;11.50;99.90
14053;DHT22;7101;51.600;7.310;2024-02-14T13:34:01;11.50;99.90
14053;DHT22;7101;51.600;7.310;2024-02-14T13:36:30;11.40;99.90
14053;DHT22;7101;51.600;7.310;2024-02-14T13:38:57;11.40;99.90
14053;DHT22;7101;51.600;7.310;2024-02-14T13:41:26;11.50;99.90
14053;DHT22;7101;51.600;7.310;2024-02-14T13:43:52;11.40;99.90
14053;DHT22;7101;51.600;7.310;2024-02-14T13:46:19;11.40;99.90
14053;DHT22;7101;51.600;7.310;2024-02-14T13:48:46;11.40;99.90
14053;DHT22;7101;51.600;7.310;2024-02-14T13:51:14;11.30;99.90
14053;DHT22;7101;51.600;7.310;2024-02-14T13:53:41;11.30;99.90
14053;DHT22;7101;51.600;7.310;2024-02-14T13:56:09;11.30;99.90
14053;DHT22;7101;51.600;7.310;2024-02-14T13:58:36;11.30;99.90
14053;DHT22;7101;51.600;7.310;2024-02-14T14:01:04;11.30;99.90
14053;DHT22;7101;51.600;7.310;2024-02-14T14:03:32;11.40;99.90
14053;DHT22;7101;51.600;7.310;2024-02-14T14:06:01;11.30;99.90
14053;DHT22;7101;51.600;7.310;2024-02-14T14:08:29;11.30;99.90
14053;DHT22;7101;51.600;7.310;2024-02-14T14:10:56;11.30;99.90
14053;DHT22;7101;51.600;7.310;2024-02-14T14:13:23;11.30;99.90
14053;DHT22;7101;51.600;7.310;2024-02-14T14:15:54;11.30;99.90
14053;DHT22;7101;51.600;7.310;2024-02-14T14:18:22;11.30;99.90
14053;DHT22;7101;51.600;7.310;2024-02-14T14:20:49;11.30;99.90
14053;DHT22;7101;51.600;7.310;2024-02-14T14:23:17;11.40;99.90
14053;DHT22;7101;51.600;7.310;2024-02-14T14:25:45;11.30;99.90
14053;DHT22;7101;51.600;7.310;2024-02-14T14:28:12;11.30;99.90
14053;DHT22;7101;51.600;7.310;2024-02-14T14:30:40;11.30;99.90
14053;DHT22;7101;51.600;7.310;2024-02-14T14:33:07;11.20;99.90
14053;DHT22;7101;51.600;7.310;2024-02-14T14:35:34;11.20;99.90
14053;DHT22;7101;51.600;7.310;2024-02-14T14:38:01;11.30;99.90
14053;DHT22;7101;51.600;7.310;2024-02-14T14:40:29;11.30;99.90
14053;DHT22;7101;51.600;7.310;2024-02-14T14:42:57;11.30;99.90
14053;DHT22;7101;51.600;7.310;2024-02-14T14:45:24;11.40;99.90
14053;DHT22;7101;51.600;7.310;2024-02-14T14:47:53;11.50;99.90
14053;DHT22;7101;51.600;7.310;2024-02-14T14:50:20;11.50;99.90
14053;DHT22;7101;51.600;7.310;2024-02-14T14:52:48;11.50;99.90
14053;DHT22;7101;51.600;7.310;2024-02-14T14:55:14;11.50;99.90
14053;DHT22;7101;51.600;7.310;2024-02-14T14:57:42;11.50;99.90
14053;DHT22;7101;51.600;7.310;2024-02-14T15:00:11;11.50;99.90
14053;DHT22;7101;51.600;7.310;2024-02-14T15:02:38;11.50;99.90
14053;DHT22;7101;51.600;7.310;2024-02-14T15:07:35;11.40;99.90
14053;DHT22;7101;51.600;7.310;2024-02-14T15:10:02;11.40;99.90
14053;DHT22;7101;51.600;7.310;2024-02-14T15:12:29;11.40;99.90
14053;DHT22;7101;51.600;7.310;2024-02-14T15:14:56;11.30;99.90
14053;DHT22;7101;51.600;7.310;2024-02-14T15:17:25;11.30;99.90
14053;DHT22;7101;51.600;7.310;2024-02-14T15:19:54;11.30;99.90
14053;DHT22;7101;51.600;7.310;2024-02-14T15:22:20;11.20;99.90
14053;DHT22;7101;51.600;7.310;2024-02-14T15:24:49;11.20;99.90
14053;DHT22;7101;51.600;7.310;2024-02-14T15:27:17;11.20;99.90
14053;DHT22;7101;51.600;7.310;2024-02-14T15:29:49;11.20;99.90
14053;DHT22;7101;51.600;7.310;2024-02-14T15:32:34;11.10;99.90
14053;DHT22;7101;51.600;7.310;2024-02-14T15:35:19;11.20;99.90
14053;DHT22;7101;51.600;7.310;2024-02-14T15:37:46;11.10;99.90
14053;DHT22;7101;51.600;7.310;2024-02-14T15:40:14;11.20;99.90
14053;DHT22;7101;51.600;7.310;2024-02-14T15:42:42;11.10;99.90
14053;DHT22;7101;51.600;7.310;2024-02-14T15:45:09;11.20;99.90
14053;DHT22;7101;51.600;7.310;2024-02-14T15:47:43;11.20;99.90
14053;DHT22;7101;51.600;7.310;2024-02-14T15:50:11;11.20;99.90
14053;DHT22;7101;51.600;7.310;2024-02-14T15:52:38;11.10;99.90
14053;DHT22;7101;51.600;7.310;2024-02-14T15:55:07;11.10;99.90
14053;DHT22;7101;51.600;7.310;2024-02-14T15:57:34;11.10;99.90
14053;DHT22;7101;51.600;7.310;2024-02-14T16:00:02;11.10;99.90
14053;DHT22;7101;51.600;7.310;2024-02-14T16:02:31;11.10;99.90